Armstrong, Illinois
Current Conditions -  °F | °C
As of 5:10 PM on Monday 22 Dec 2014 (Local Time) from KTIP Reporting Station
Drizzle Drizzle  
Wind Chill: 38°   Ceiling: 700
Heat Index: 46°   Visibility: 5mi
Dew Point: 44°   Wind: 18mph
Humidity: 94%   Direction: 130°SE
Pressure: 29.63"   Gusts: NA
Location:  40.31°N, 87.88°W
Report Text: KTIP 222310Z AUTO 13016KT 5SM DZ OVC007 08/07 A2963 RMK AO2 T00750066
Loading
Personal Weather Stations






























Interactive Weather Map New forecast layout! Learn more

10-Day Weather Forecast

Advertisements
Track Severe Weather on mobile